Time;durP1;ratioP1;P1;durP2;ratioP2;P2;SDS_P1;SDS_P2;PMS_P1;PMS_P2;Temp;Humidity;BMP_temperature;BMP_pressure;BME280_temperature;BME280_humidity;BME280_pressure;Samples;Min_cycle;Max_cycle;Signal;HPM_P1;HPM_P2
2022/05/27 05:27:59;;;;;;;0.00;0.00;;;;;;;23.33;100.00;101402.28;2582446;54;52293;-65
2022/05/27 05:30:34;;;;;;;1.00;1.00;;;;;;;23.14;100.00;101399.88;2617541;47;20164;-65
2022/05/27 05:33:04;;;;;;;0.10;0.10;;;;;;;23.11;100.00;101401.00;2618104;54;20134;-65
2022/05/27 05:35:34;;;;;;;0.43;0.43;;;;;;;23.15;100.00;101407.63;2618471;46;20156;-65
2022/05/27 05:38:05;;;;;;;0.10;0.10;;;;;;;23.17;100.00;101407.50;2618241;54;20156;-65
2022/05/27 05:40:35;;;;;;;0.52;0.52;;;;;;;23.03;100.00;101403.59;2618406;54;20142;-65
2022/05/27 05:43:09;;;;;;;0.00;0.00;;;;;;;23.54;100.00;101404.56;2618289;54;20149;-64
2022/05/27 05:45:39;;;;;;;0.00;0.00;;;;;;;23.72;100.00;101411.44;2618324;50;20134;-65
2022/05/27 05:48:10;;;;;;;0.35;0.35;;;;;;;23.65;100.00;101398.97;2618105;54;20134;-66
2022/05/27 05:50:40;;;;;;;0.17;0.17;;;;;;;23.86;100.00;101395.91;2618349;54;20145;-65
2022/05/27 05:53:15;;;;;;;0.65;0.65;;;;;;;23.87;100.00;101397.59;2618165;54;20148;-65
2022/05/27 05:55:45;;;;;;;0.00;0.00;;;;;;;23.93;100.00;101400.41;2618296;54;20141;-64
2022/05/27 05:58:18;;;;;;;0.00;0.00;;;;;;;23.75;100.00;101400.50;2617868;54;20149;-66
2022/05/27 06:00:48;;;;;;;1.05;0.98;;;;;;;23.65;100.00;101399.81;2618209;54;20141;-65
2022/05/27 06:03:18;;;;;;;0.00;0.00;;;;;;;23.73;100.00;101399.84;2618405;54;20142;-64
2022/05/27 06:05:48;;;;;;;8.20;3.70;;;;;;;23.69;100.00;101398.50;2618412;54;20134;-65
2022/05/27 06:08:19;;;;;;;0.35;0.35;;;;;;;23.51;100.00;101391.66;2618063;39;20658;-65
2022/05/27 06:10:50;;;;;;;0.17;0.17;;;;;;;23.60;100.00;101394.16;2618064;54;20134;-64
2022/05/27 06:13:23;;;;;;;0.08;0.08;;;;;;;23.63;100.00;101387.72;2618035;54;20148;-65
2022/05/27 06:15:53;;;;;;;1.08;0.85;;;;;;;23.86;100.00;101399.41;2617722;54;20156;-65
2022/05/27 06:18:23;;;;;;;0.00;0.00;;;;;;;23.97;100.00;101392.97;2618047;54;20684;-65
2022/05/27 06:20:53;;;;;;;0.57;0.57;;;;;;;23.93;100.00;101396.91;2618201;54;20148;-65
2022/05/27 06:23:27;;;;;;;0.00;0.00;;;;;;;24.27;100.00;101388.91;2618102;47;20245;-64
2022/05/27 06:25:58;;;;;;;1.92;1.83;;;;;;;24.23;100.00;101394.53;2617830;54;20134;-65
2022/05/27 06:36:41;;;;;;;0.00;0.00;;;;;;;24.69;100.00;101389.56;2617605;47;20142;-65
2022/05/27 06:39:11;;;;;;;0.00;0.00;;;;;;;24.70;100.00;101385.94;2617532;54;20148;-66
2022/05/27 06:41:42;;;;;;;1.15;1.13;;;;;;;24.70;100.00;101383.28;2617483;54;20678;-63
2022/05/27 06:44:15;;;;;;;0.50;0.50;;;;;;;24.94;100.00;101379.78;2617921;54;20164;-65
2022/05/27 06:46:45;;;;;;;2.30;0.35;;;;;;;25.07;100.00;101377.44;2618069;54;20133;-65
2022/05/27 06:49:17;;;;;;;2.67;1.25;;;;;;;25.04;100.00;101383.91;2617778;54;20150;-64
2022/05/27 06:51:48;;;;;;;0.10;0.10;;;;;;;24.92;100.00;101373.81;2617945;47;20141;-66
2022/05/27 06:54:19;;;;;;;0.00;0.00;;;;;;;25.16;100.00;101376.41;2618021;47;20156;-64
2022/05/27 06:56:52;;;;;;;0.10;0.10;;;;;;;25.18;100.00;101379.72;2618032;47;20164;-64
2022/05/27 06:59:26;;;;;;;0.00;0.00;;;;;;;25.32;100.00;101380.84;2618239;54;20157;-65
2022/05/27 07:01:57;;;;;;;0.00;0.00;;;;;;;25.44;96.88;101380.28;2618105;54;20144;-66
2022/05/27 07:04:27;;;;;;;0.00;0.00;;;;;;;25.56;90.67;101370.16;2617957;54;20172;-65
2022/05/27 07:06:58;;;;;;;0.00;0.00;;;;;;;25.49;97.70;101369.97;2618581;39;20558;-65
2022/05/27 07:09:29;;;;;;;0.90;0.45;;;;;;;25.19;92.25;101369.94;2617846;54;20181;-65
2022/05/27 07:12:00;;;;;;;0.28;0.28;;;;;;;25.27;97.15;101367.25;2617952;54;20152;-65
2022/05/27 07:14:33;;;;;;;0.70;0.50;;;;;;;25.26;87.93;101373.56;2617762;54;20148;-64
2022/05/27 07:17:03;;;;;;;1.85;0.65;;;;;;;24.95;87.14;101373.50;2618031;54;20134;-65
2022/05/27 07:19:39;;;;;;;1.33;1.00;;;;;;;24.67;94.89;101371.16;2618260;39;20534;-64
2022/05/27 07:22:11;;;;;;;0.00;0.00;;;;;;;24.88;100.00;101367.16;2618094;54;20134;-65
2022/05/27 07:24:42;;;;;;;0.00;0.00;;;;;;;25.16;100.00;101368.44;2618129;54;20141;-66
2022/05/27 07:27:12;;;;;;;1.38;1.25;;;;;;;25.28;100.00;101376.88;2618206;47;20575;-64
2022/05/27 07:29:45;;;;;;;0.63;0.47;;;;;;;25.41;100.00;101372.69;2617192;54;20141;-64
2022/05/27 07:32:15;;;;;;;0.52;0.52;;;;;;;25.52;98.02;101374.13;2618096;47;20163;-64
2022/05/27 07:34:48;;;;;;;0.00;0.00;;;;;;;25.47;100.00;101369.34;2617907;54;20142;-66
2022/05/27 07:37:18;;;;;;;0.10;0.10;;;;;;;25.55;97.68;101369.34;2617876;54;20149;-65
2022/05/27 07:39:48;;;;;;;0.03;0.03;;;;;;;25.60;93.53;101369.63;2617815;54;20134;-65
2022/05/27 07:42:24;;;;;;;1.05;1.05;;;;;;;25.45;93.50;101366.00;2617957;54;20179;-64
2022/05/27 07:44:57;;;;;;;0.10;0.10;;;;;;;25.49;94.13;101374.47;2617747;47;20138;-65
2022/05/27 07:47:30;;;;;;;19.67;2.50;;;;;;;25.66;94.12;101361.97;2618007;54;20688;-65
2022/05/27 07:50:03;;;;;;;0.82;0.77;;;;;;;25.86;99.22;101357.88;2617360;54;20403;-64
2022/05/27 07:52:34;;;;;;;0.73;0.73;;;;;;;26.03;91.84;101365.56;2617956;46;20164;-66
2022/05/27 07:55:04;;;;;;;2.25;1.45;;;;;;;25.82;100.00;101372.50;2617578;54;20137;-64
2022/05/27 07:57:35;;;;;;;0.15;0.15;;;;;;;25.90;86.09;101362.66;2618316;39;20539;-65
2022/05/27 08:00:12;;;;;;;0.77;0.77;;;;;;;25.89;87.82;101353.03;2617997;54;20141;-66
2022/05/27 08:02:46;;;;;;;0.43;0.43;;;;;;;25.82;93.00;101357.41;2618202;54;20653;-65
2022/05/27 08:05:19;;;;;;;0.20;0.20;;;;;;;25.88;94.11;101359.34;2617847;54;20194;-65
2022/05/27 08:07:56;;;;;;;2.63;1.42;;;;;;;25.73;99.46;101362.91;2617899;54;20168;-65
2022/05/27 08:10:29;;;;;;;0.25;0.25;;;;;;;25.71;100.00;101368.44;2617790;54;20146;-65
2022/05/27 08:13:00;;;;;;;1.27;0.35;;;;;;;25.39;100.00;101361.41;2617707;54;20148;-65
2022/05/27 08:15:38;;;;;;;0.00;0.00;;;;;;;25.53;100.00;101365.19;2617915;54;20156;-65
2022/05/27 08:18:13;;;;;;;0.00;0.00;;;;;;;25.68;100.00;101354.66;2617613;54;20148;-65
2022/05/27 08:20:43;;;;;;;2.08;1.38;;;;;;;25.38;100.00;101358.91;2617686;54;20134;-65
2022/05/27 08:23:14;;;;;;;0.88;0.88;;;;;;;25.53;100.00;101355.38;2617825;54;20141;-65
2022/05/27 08:25:48;;;;;;;2.83;0.82;;;;;;;25.37;100.00;101355.41;2617675;54;20681;-64
2022/05/27 08:28:27;;;;;;;1.75;1.65;;;;;;;25.33;100.00;101356.75;2617825;54;20155;-65
2022/05/27 08:31:05;;;;;;;0.30;0.30;;;;;;;25.55;100.00;101356.06;2617476;54;20172;-65
2022/05/27 08:39:14;;;;;;;0.98;0.98;;;;;;;25.51;100.00;101338.75;2617665;54;20148;-65
2022/05/27 08:42:03;;;;;;;0.20;0.13;;;;;;;25.72;100.00;101345.34;2617629;54;20709;-65
2022/05/27 08:44:48;;;;;;;0.00;0.00;;;;;;;25.95;100.00;101335.53;2617655;47;20155;-65
2022/05/27 08:47:26;;;;;;;0.43;0.35;;;;;;;25.97;100.00;101338.84;2618199;39;20611;-65
2022/05/27 08:50:09;;;;;;;1.08;1.08;;;;;;;25.56;100.00;101341.75;2617790;39;20545;-65
2022/05/27 08:52:43;;;;;;;0.10;0.10;;;;;;;25.68;100.00;101341.38;2617409;54;20134;-64
2022/05/27 09:00:57;;;;;;;0.35;0.35;;;;;;;25.73;100.00;101329.19;2617344;54;20164;-64
2022/05/27 09:03:33;;;;;;;0.35;0.35;;;;;;;25.79;100.00;101335.66;2617679;54;20141;-65
2022/05/27 09:06:07;;;;;;;2.10;1.00;;;;;;;25.84;100.00;101333.31;2617959;54;20142;-65
2022/05/27 09:08:37;;;;;;;1.85;0.73;;;;;;;26.08;100.00;101325.13;2618248;47;20141;-64
2022/05/27 09:11:22;;;;;;;0.80;0.80;;;;;;;26.06;100.00;101325.31;2618137;54;20424;-66
2022/05/27 09:14:05;;;;;;;0.00;0.00;;;;;;;26.22;100.00;101313.75;2618370;54;20146;-65
2022/05/27 09:16:40;;;;;;;0.15;0.15;;;;;;;26.39;100.00;101317.09;2618386;54;20141;-65
2022/05/27 09:19:44;;;;;;;1.23;1.23;;;;;;;26.18;100.00;101309.75;2618335;54;20138;-65
2022/05/27 09:22:20;;;;;;;0.00;0.00;;;;;;;26.21;100.00;101320.06;2618208;54;20141;-65
2022/05/27 09:25:03;;;;;;;0.25;0.25;;;;;;;26.28;100.00;101320.19;2618341;54;20677;-65
2022/05/27 09:27:47;;;;;;;1.10;0.98;;;;;;;26.01;100.00;101311.72;2618136;54;20704;-65
2022/05/27 09:30:19;;;;;;;0.40;0.40;;;;;;;26.18;98.72;101309.75;2618279;54;20680;-64
2022/05/27 09:32:54;;;;;;;0.00;0.00;;;;;;;26.26;95.70;101315.06;2618243;46;20142;-65
2022/05/27 09:35:32;;;;;;;2.17;0.85;;;;;;;26.19;100.00;101311.47;2618177;54;20130;-65
2022/05/27 09:38:20;;;;;;;0.47;0.43;;;;;;;26.17;100.00;101308.09;2618528;39;20782;-66
2022/05/27 09:40:55;;;;;;;0.73;0.73;;;;;;;26.12;96.61;101307.00;2618036;54;20133;-66
2022/05/27 09:43:35;;;;;;;0.00;0.00;;;;;;;26.04;98.55;101310.53;2618253;54;20133;-66
2022/05/27 09:46:13;;;;;;;1.00;1.00;;;;;;;26.02;96.52;101307.22;2618349;54;20225;-65
2022/05/27 09:48:47;;;;;;;0.25;0.22;;;;;;;25.98;95.62;101295.28;2618150;54;20233;-65
2022/05/27 09:51:21;;;;;;;3.05;2.92;;;;;;;26.18;98.88;101303.59;2618397;47;20134;-64
2022/05/27 09:53:54;;;;;;;0.00;0.00;;;;;;;25.99;98.11;101297.78;2618814;39;20540;-65
2022/05/27 09:56:38;;;;;;;0.82;0.65;;;;;;;25.99;98.22;101302.28;2618324;54;20142;-65
2022/05/27 09:59:23;;;;;;;2.25;2.10;;;;;;;25.88;99.35;101297.38;2618526;54;20149;-65
2022/05/27 10:02:17;;;;;;;0.10;0.10;;;;;;;26.10;93.90;101293.88;2618250;54;20506;-66
2022/05/27 10:04:54;;;;;;;1.25;0.73;;;;;;;26.02;89.86;101289.44;2618374;54;20149;-65
2022/05/27 10:07:37;;;;;;;2.58;2.42;;;;;;;26.19;88.47;101287.50;2618486;54;20134;-66
2022/05/27 10:10:22;;;;;;;3.53;3.42;;;;;;;26.35;87.96;101284.72;2618916;39;20564;-65
2022/05/27 10:12:52;;;;;;;5.53;3.58;;;;;;;26.33;85.63;101292.03;2618443;54;20142;-66
2022/05/27 10:15:32;;;;;;;0.85;0.85;;;;;;;26.31;85.03;101286.06;2618342;47;20148;-65
2022/05/27 10:18:21;;;;;;;0.65;0.25;;;;;;;26.23;86.16;101283.50;2618168;54;20168;-65
2022/05/27 10:20:55;;;;;;;0.47;0.47;;;;;;;26.19;92.01;101282.19;2618317;47;20141;-64
2022/05/27 10:23:33;;;;;;;0.00;0.00;;;;;;;26.45;87.78;101279.94;2617391;54;20133;-65
2022/05/27 10:26:18;;;;;;;0.38;0.38;;;;;;;26.62;87.90;101279.78;2618103;54;20181;-65
2022/05/27 10:28:59;;;;;;;7.20;1.75;;;;;;;26.47;88.38;101279.75;2618780;39;20584;-66
2022/05/27 10:31:37;;;;;;;1.08;1.05;;;;;;;26.57;90.25;101263.50;2618438;54;20172;-65
2022/05/27 10:34:07;;;;;;;0.82;0.63;;;;;;;26.61;91.46;101262.13;2618061;54;20142;-66
2022/05/27 10:36:57;;;;;;;0.05;0.05;;;;;;;26.41;87.78;101262.69;2618318;54;20648;-65
2022/05/27 10:39:48;;;;;;;1.17;1.08;;;;;;;26.16;88.27;101258.56;2618184;54;20668;-66
2022/05/27 10:42:38;;;;;;;1.65;1.25;;;;;;;25.96;89.14;101262.72;2618546;39;20530;-65
2022/05/27 10:45:20;;;;;;;0.22;0.22;;;;;;;26.19;89.52;101257.38;2618738;39;20556;-65
2022/05/27 10:48:44;;;;;;;2.47;2.20;;;;;;;26.26;89.93;101255.69;2617783;54;20674;-64
2022/05/27 10:51:32;;;;;;;14.52;4.45;;;;;;;26.06;97.63;101252.66;2617845;54;20134;-66
2022/05/27 10:54:28;;;;;;;11.35;8.13;;;;;;;25.70;96.73;101256.94;2617417;54;20156;-64
2022/05/27 11:03:24;;;;;;;11.13;3.40;;;;;;;25.14;100.00;101261.53;2617343;54;20152;-65
2022/05/27 11:06:21;;;;;;;1.73;1.52;;;;;;;25.42;100.00;101254.75;2616907;47;20145;-65
2022/05/27 11:09:09;;;;;;;1.15;1.15;;;;;;;25.73;100.00;101245.94;2617261;54;20134;-66
2022/05/27 11:11:53;;;;;;;0.65;0.38;;;;;;;25.97;100.00;101237.78;2617685;54;20172;-65
2022/05/27 11:17:37;;;;;;;2.22;2.13;;;;;;;26.24;100.00;101233.75;2617488;54;20164;-65
2022/05/27 11:20:39;;;;;;;1.95;1.75;;;;;;;25.94;100.00;101211.53;2617479;54;20157;-64
2022/05/27 11:23:44;;;;;;;3.33;3.13;;;;;;;26.11;100.00;101217.56;2617106;54;20183;-66
2022/05/27 11:38:02;;;;;;;3.20;2.90;;;;;;;26.18;100.00;101211.31;2617344;54;20141;-66
2022/05/27 11:40:40;;;;;;;2.75;2.45;;;;;;;25.99;100.00;101193.22;2617730;54;20179;-64
2022/05/27 11:43:42;;;;;;;4.82;4.38;;;;;;;25.68;100.00;101200.47;2617984;54;20863;-66
2022/05/27 11:46:42;;;;;;;2.70;2.50;;;;;;;25.84;100.00;101198.50;2617907;54;20164;-65
2022/05/27 11:49:58;;;;;;;2.95;2.78;;;;;;;25.73;100.00;101192.78;2618231;39;20542;-66
2022/05/27 11:52:47;;;;;;;0.20;0.20;;;;;;;26.28;100.00;101181.84;2617758;39;20545;-64
2022/05/27 11:55:32;;;;;;;3.78;3.10;;;;;;;26.18;100.00;101179.41;2617684;47;20136;-64
2022/05/27 11:58:12;;;;;;;1.58;1.48;;;;;;;26.35;100.00;101178.25;2617941;39;20440;-64
2022/05/27 12:00:52;;;;;;;3.20;2.65;;;;;;;26.80;100.00;101182.53;2617994;54;20164;-65
2022/05/27 12:03:36;;;;;;;2.40;1.75;;;;;;;27.12;100.00;101175.16;2617907;54;20164;-64
2022/05/27 12:06:16;;;;;;;2.75;2.55;;;;;;;26.68;100.00;101175.22;2617820;54;20525;-65
2022/05/27 12:08:58;;;;;;;2.03;0.63;;;;;;;28.02;100.00;101168.22;2617561;54;20134;-65
2022/05/27 12:11:40;;;;;;;0.32;0.32;;;;;;;29.80;82.16;101161.72;2617866;54;20172;-63
2022/05/27 12:14:17;;;;;;;3.20;2.92;;;;;;;29.26;79.21;101156.50;2617974;39;20547;-65
2022/05/27 12:16:53;;;;;;;4.82;2.50;;;;;;;28.94;85.10;101159.91;2618156;39;20587;-64
2022/05/27 12:19:31;;;;;;;3.78;3.15;;;;;;;28.88;81.22;101164.22;2617823;54;20141;-65
2022/05/27 12:22:14;;;;;;;5.50;2.63;;;;;;;27.98;90.79;101156.28;2617522;54;20184;-65
2022/05/27 12:24:52;;;;;;;2.30;1.98;;;;;;;28.00;91.29;101164.94;2617581;54;20188;-64
2022/05/27 12:27:25;;;;;;;3.38;3.17;;;;;;;28.35;87.90;101158.63;2617427;54;20727;-65
2022/05/27 12:29:58;;;;;;;2.90;2.70;;;;;;;27.63;96.17;101158.06;2617909;39;20615;-64
2022/05/27 12:32:33;;;;;;;1.35;0.95;;;;;;;27.62;98.77;101150.25;2617456;54;20133;-64
2022/05/27 12:35:23;;;;;;;1.33;0.50;;;;;;;28.37;95.10;101159.22;2617403;54;20244;-65
2022/05/27 12:38:02;;;;;;;2.20;2.08;;;;;;;27.92;93.94;101163.22;2617520;54;20141;-65
2022/05/27 12:40:42;;;;;;;3.33;2.95;;;;;;;27.45;96.13;101153.16;2618074;54;20133;-64
2022/05/27 12:43:22;;;;;;;2.35;2.10;;;;;;;27.83;93.30;101152.88;2618414;54;20141;-64
2022/05/27 12:45:56;;;;;;;2.15;1.98;;;;;;;28.66;86.69;101135.94;2618306;54;20133;-65
2022/05/27 12:48:33;;;;;;;2.47;2.28;;;;;;;29.02;84.36;101144.53;2618148;54;20133;-65
2022/05/27 12:51:06;;;;;;;1.00;0.68;;;;;;;28.65;87.84;101151.13;2618037;54;20163;-65
2022/05/27 12:53:48;;;;;;;2.55;2.25;;;;;;;28.60;87.19;101145.59;2618484;54;20142;-64
2022/05/27 13:02:49;;;;;;;0.00;0.00;;;;;;;29.32;86.39;101130.84;2618299;54;20142;-63
2022/05/27 13:05:25;;;;;;;2.25;2.15;;;;;;;29.03;86.18;101135.50;2618344;54;20157;-65
2022/05/27 13:08:13;;;;;;;6.90;4.68;;;;;;;27.86;96.81;101121.31;2618301;46;20157;-65
2022/05/27 13:10:53;;;;;;;1.63;1.55;;;;;;;28.89;89.42;101131.13;2618317;46;20133;-65
2022/05/27 13:13:29;;;;;;;1.63;1.05;;;;;;;27.98;98.11;101124.25;2618350;47;20141;-65
2022/05/27 13:16:10;;;;;;;2.25;1.38;;;;;;;27.53;100.00;101122.88;2618304;54;20236;-64
2022/05/27 13:18:55;;;;;;;0.85;0.85;;;;;;;28.61;98.70;101109.00;2618108;54;20164;-64
2022/05/27 13:21:42;;;;;;;2.75;2.55;;;;;;;28.10;100.00;101111.22;2618147;54;20168;-65
2022/05/27 13:24:33;;;;;;;5.28;3.53;;;;;;;27.04;100.00;101119.34;2618221;54;20138;-65
2022/05/27 13:27:27;;;;;;;1.23;1.17;;;;;;;27.48;100.00;101111.19;2618086;54;20223;-65
2022/05/27 13:30:08;;;;;;;3.65;2.85;;;;;;;28.21;100.00;101108.00;2618857;54;20151;-64
2022/05/27 13:32:59;;;;;;;2.05;1.95;;;;;;;28.77;92.89;101098.81;2618304;54;20161;-64
2022/05/27 13:35:40;;;;;;;1.65;1.52;;;;;;;28.52;92.77;101103.03;2618012;54;20157;-65
2022/05/27 13:38:20;;;;;;;3.25;2.97;;;;;;;27.86;95.62;101094.63;2616618;54;20276;-64
2022/05/27 13:40:51;;;;;;;1.85;1.75;;;;;;;27.24;100.00;101091.84;2616967;54;20152;-65
2022/05/27 13:43:30;;;;;;;1.60;1.42;;;;;;;28.00;99.43;101100.91;2616554;54;20691;-64
2022/05/27 13:46:11;;;;;;;1.05;1.05;;;;;;;28.46;92.69;101105.66;2616832;54;20141;-64
2022/05/27 13:48:47;;;;;;;1.50;1.40;;;;;;;27.63;95.34;101101.25;2616606;39;20246;-65
2022/05/27 13:51:21;;;;;;;2.08;1.25;;;;;;;28.16;92.12;101089.94;2616469;47;20141;-65
2022/05/27 13:53:53;;;;;;;7.05;2.78;;;;;;;27.37;98.11;101086.63;2616488;54;20153;-64
2022/05/27 13:56:29;;;;;;;3.40;2.17;;;;;;;27.51;98.79;101082.28;2616589;54;20296;-64
2022/05/27 13:59:06;;;;;;;2.33;1.73;;;;;;;27.58;94.55;101079.66;2616527;54;20684;-64
2022/05/27 14:01:38;;;;;;;2.17;2.03;;;;;;;27.87;90.19;101082.97;2617942;39;20540;-64
2022/05/27 14:04:16;;;;;;;2.22;1.40;;;;;;;27.32;92.44;101067.72;2618120;47;20177;-65
2022/05/27 14:06:46;;;;;;;0.65;0.65;;;;;;;28.06;91.24;101062.75;2618026;54;20669;-66
2022/05/27 14:09:20;;;;;;;1.33;1.23;;;;;;;26.94;98.95;101069.03;2617928;54;20134;-65
2022/05/27 14:11:59;;;;;;;2.03;1.88;;;;;;;27.71;96.48;101071.75;2618109;54;20398;-65
2022/05/27 14:14:41;;;;;;;0.75;0.75;;;;;;;28.59;88.31;101065.66;2618014;54;20169;-64
2022/05/27 14:17:17;;;;;;;0.68;0.68;;;;;;;28.54;84.48;101057.44;2618245;54;20272;-66
2022/05/27 14:19:49;;;;;;;2.67;2.47;;;;;;;27.60;86.09;101045.66;2617915;54;20137;-64
2022/05/27 14:25:13;;;;;;;0.73;0.73;;;;;;;28.92;81.05;101034.56;2618099;54;20233;-65
2022/05/27 14:27:47;;;;;;;2.00;1.90;;;;;;;28.21;84.89;101044.78;2618175;54;20196;-64
2022/05/27 14:30:24;;;;;;;2.45;0.68;;;;;;;28.98;78.13;101038.25;2617965;54;20134;-65
2022/05/27 14:32:55;;;;;;;1.95;1.50;;;;;;;28.69;79.61;101031.41;2618330;39;20542;-65
2022/05/27 14:35:28;;;;;;;2.95;1.23;;;;;;;28.71;82.26;101029.38;2617811;54;20149;-65
2022/05/27 14:38:04;;;;;;;5.95;2.75;;;;;;;27.77;91.87;101031.78;2617891;54;20133;-64
2022/05/27 14:40:45;;;;;;;0.10;0.05;;;;;;;28.70;85.71;101012.50;2618443;39;20551;-65
2022/05/27 14:43:37;;;;;;;1.63;1.52;;;;;;;28.71;86.74;101024.03;2617818;47;20145;-65
2022/05/27 14:46:20;;;;;;;0.52;0.52;;;;;;;28.23;88.01;101013.38;2617844;54;20145;-66
2022/05/27 14:48:55;;;;;;;2.75;2.17;;;;;;;28.63;84.53;101018.84;2617798;54;20149;-64
2022/05/27 14:51:32;;;;;;;0.75;0.75;;;;;;;28.50;89.65;101029.47;2618041;46;20292;-65
2022/05/27 14:54:22;;;;;;;1.55;1.45;;;;;;;28.37;87.49;101016.91;2617763;47;20680;-65
2022/05/27 14:56:53;;;;;;;0.65;0.60;;;;;;;29.40;80.88;101018.34;2618035;54;20134;-64
2022/05/27 14:59:35;;;;;;;1.05;1.02;;;;;;;29.46;80.07;101015.66;2618366;54;20142;-65
2022/05/27 15:02:08;;;;;;;1.42;1.33;;;;;;;29.52;79.70;101011.34;2618161;54;20142;-64
2022/05/27 15:04:38;;;;;;;3.80;1.20;;;;;;;28.66;83.41;101005.91;2617510;54;20166;-65
2022/05/27 15:07:23;;;;;;;1.65;1.42;;;;;;;29.00;82.80;100998.78;2618229;39;20537;-65
2022/05/27 15:10:01;;;;;;;0.40;0.40;;;;;;;28.73;84.66;101009.44;2617754;54;20141;-65
2022/05/27 15:12:33;;;;;;;1.25;1.15;;;;;;;29.46;80.39;100998.78;2617989;54;20691;-65
2022/05/27 15:15:04;;;;;;;1.35;1.25;;;;;;;29.37;78.94;100994.69;2617675;54;20148;-64
2022/05/27 15:17:59;;;;;;;0.25;0.25;;;;;;;29.03;80.84;100991.19;2617960;54;20156;-65
2022/05/27 15:20:29;;;;;;;0.08;0.08;;;;;;;29.37;79.54;100990.16;2617861;54;20134;-65
2022/05/27 15:23:02;;;;;;;2.55;2.45;;;;;;;29.05;80.82;100988.31;2617901;54;20134;-65
2022/05/27 15:25:38;;;;;;;5.47;2.40;;;;;;;28.72;84.13;100991.78;2618365;39;20541;-64
2022/05/27 15:34:09;;;;;;;4.70;1.75;;;;;;;28.54;88.76;100977.31;2617889;54;20134;-66
2022/05/27 15:36:39;;;;;;;3.00;2.38;;;;;;;29.02;83.95;100961.97;2617951;54;20142;-65
2022/05/27 15:39:09;;;;;;;2.75;1.55;;;;;;;28.82;85.47;100970.00;2618386;39;20555;-65
2022/05/27 15:41:41;;;;;;;0.93;0.93;;;;;;;29.20;83.47;100976.38;2618320;39;20572;-64
2022/05/27 15:44:12;;;;;;;3.22;1.73;;;;;;;28.85;85.24;100972.25;2617622;54;20484;-64
2022/05/27 15:46:42;;;;;;;2.92;1.23;;;;;;;28.10;92.18;100983.97;2617978;54;20680;-64
2022/05/27 15:49:15;;;;;;;0.90;0.65;;;;;;;27.68;95.43;100978.84;2617847;54;20249;-64
2022/05/27 15:51:45;;;;;;;0.93;0.93;;;;;;;27.28;100.00;100983.84;2617992;54;20646;-64
2022/05/27 15:54:17;;;;;;;2.60;2.38;;;;;;;26.34;100.00;100985.00;2617866;54;20237;-64
2022/05/27 15:56:47;;;;;;;1.80;1.70;;;;;;;26.59;100.00;100976.66;2618113;54;20148;-65
2022/05/27 15:59:18;;;;;;;3.15;1.65;;;;;;;26.39;100.00;100993.25;2617711;54;20133;-65
2022/05/27 16:01:48;;;;;;;0.82;0.82;;;;;;;26.69;100.00;100982.50;2617969;54;20141;-64
2022/05/27 16:04:21;;;;;;;1.38;1.30;;;;;;;26.25;100.00;100980.81;2617772;54;20225;-64
2022/05/27 16:06:51;;;;;;;0.40;0.40;;;;;;;26.19;100.00;100980.72;2617799;54;20142;-64
2022/05/27 16:09:22;;;;;;;2.08;1.90;;;;;;;25.47;100.00;100975.22;2617742;54;20149;-65
2022/05/27 16:11:52;;;;;;;0.88;0.80;;;;;;;25.39;100.00;100952.22;2617811;54;20701;-64
2022/05/27 16:14:22;;;;;;;3.17;2.58;;;;;;;25.10;100.00;100952.19;2617694;54;20134;-65
2022/05/27 16:19:38;;;;;;;2.28;2.00;;;;;;;24.38;100.00;100957.00;2617642;54;20138;-64
2022/05/27 16:22:08;;;;;;;1.42;1.33;;;;;;;24.55;100.00;100945.31;2617945;54;20142;-64
2022/05/27 16:24:38;;;;;;;0.77;0.77;;;;;;;24.19;100.00;100957.47;2617625;54;20142;-64
2022/05/27 16:27:08;;;;;;;4.72;1.90;;;;;;;23.86;100.00;100943.50;2617771;54;20197;-65
2022/05/27 16:29:42;;;;;;;2.13;1.30;;;;;;;23.97;100.00;100936.97;2617717;49;20673;-65
2022/05/27 16:32:13;;;;;;;1.20;1.13;;;;;;;23.95;100.00;100947.75;2617706;54;20141;-65
2022/05/27 16:34:46;;;;;;;1.35;0.90;;;;;;;24.06;100.00;100947.38;2617604;54;20145;-66
2022/05/27 16:37:16;;;;;;;2.05;1.92;;;;;;;23.68;100.00;100941.06;2617648;47;20152;-64
2022/05/27 16:39:46;;;;;;;4.90;2.65;;;;;;;23.67;100.00;100939.41;2617598;54;20152;-64
2022/05/27 16:42:16;;;;;;;2.20;1.42;;;;;;;23.78;100.00;100939.06;2617869;54;20133;-65
2022/05/27 16:44:47;;;;;;;4.82;3.20;;;;;;;24.33;100.00;100934.66;2617653;54;20141;-64
2022/05/27 16:47:18;;;;;;;0.80;0.80;;;;;;;24.23;100.00;100911.03;2617793;47;20681;-65
2022/05/27 16:49:51;;;;;;;3.33;1.05;;;;;;;24.80;100.00;100918.53;2617508;54;20149;-65
2022/05/27 16:52:21;;;;;;;4.60;1.65;;;;;;;24.79;100.00;100925.72;2617668;54;20134;-65
2022/05/27 16:54:52;;;;;;;0.52;0.52;;;;;;;24.90;100.00;100917.34;2617934;39;20521;-64
2022/05/27 16:57:24;;;;;;;12.13;2.88;;;;;;;25.00;100.00;100911.75;2617662;47;20142;-67
2022/05/27 16:59:54;;;;;;;0.20;0.20;;;;;;;24.95;100.00;100916.81;2617499;54;20152;-63
2022/05/27 17:02:25;;;;;;;0.93;0.93;;;;;;;24.61;100.00;100928.66;2617499;54;20790;-64
2022/05/27 17:04:57;;;;;;;0.75;0.75;;;;;;;24.53;100.00;100931.38;2617470;54;20141;-65
2022/05/27 17:07:28;;;;;;;1.30;1.23;;;;;;;24.12;100.00;100924.63;2617849;54;20146;-64
2022/05/27 17:09:58;;;;;;;0.73;0.73;;;;;;;23.90;100.00;100925.44;2617582;54;20142;-64
2022/05/27 17:12:29;;;;;;;3.22;1.65;;;;;;;23.57;100.00;100930.03;2617909;47;20134;-64
2022/05/27 17:14:59;;;;;;;5.68;3.47;;;;;;;23.24;100.00;100927.44;2617727;54;20172;-64
2022/05/27 17:17:29;;;;;;;2.67;2.10;;;;;;;23.30;100.00;100932.06;2617481;47;20146;-65
2022/05/27 17:20:03;;;;;;;2.33;2.13;;;;;;;23.00;100.00;100937.22;2617459;54;20140;-64
2022/05/27 17:22:33;;;;;;;1.40;1.35;;;;;;;22.61;100.00;100940.50;2617620;54;20156;-64
2022/05/27 17:25:04;;;;;;;0.70;0.70;;;;;;;22.66;100.00;100940.84;2617538;54;20140;-63
2022/05/27 17:27:35;;;;;;;4.10;2.42;;;;;;;22.30;100.00;100932.38;2617959;54;20212;-63
2022/05/27 17:30:06;;;;;;;0.22;0.22;;;;;;;22.10;100.00;100928.34;2618149;54;20415;-64
2022/05/27 17:32:36;;;;;;;1.27;0.55;;;;;;;22.19;100.00;100940.56;2618418;54;20134;-64
2022/05/27 17:35:12;;;;;;;2.10;1.95;;;;;;;21.89;100.00;100947.22;2618256;54;20253;-64
2022/05/27 17:37:42;;;;;;;5.03;0.88;;;;;;;21.60;100.00;100940.66;2618404;46;20156;-64
2022/05/27 17:40:16;;;;;;;1.75;1.52;;;;;;;21.61;100.00;100937.84;2618391;54;20161;-63
2022/05/27 17:42:46;;;;;;;3.17;2.90;;;;;;;22.01;100.00;100939.03;2618332;39;20604;-63
2022/05/27 17:45:17;;;;;;;1.48;1.30;;;;;;;21.95;100.00;100942.34;2617721;54;20141;-64
2022/05/27 17:53:15;;;;;;;0.45;0.45;;;;;;;21.53;100.00;100956.28;2618888;39;20330;-64
2022/05/27 17:55:45;;;;;;;0.70;0.70;;;;;;;21.44;100.00;100950.13;2618393;54;20286;-64
2022/05/27 17:58:16;;;;;;;2.60;1.17;;;;;;;21.23;100.00;100948.84;2618211;47;20134;-63
2022/05/27 18:00:46;;;;;;;0.90;0.63;;;;;;;21.22;100.00;100949.84;2618290;47;20141;-64
2022/05/27 18:03:17;;;;;;;14.13;3.55;;;;;;;21.25;100.00;100950.34;2618145;54;20138;-65
2022/05/27 18:05:49;;;;;;;1.83;1.70;;;;;;;21.26;100.00;100949.38;2617283;54;20142;-64
2022/05/27 18:08:20;;;;;;;1.95;1.85;;;;;;;21.28;100.00;100954.47;2617543;54;20145;-67
2022/05/27 18:10:50;;;;;;;0.55;0.55;;;;;;;21.30;100.00;100950.72;2617534;47;20173;-65
2022/05/27 18:13:21;;;;;;;4.68;1.58;;;;;;;21.33;100.00;100946.94;2617800;47;20152;-64
2022/05/27 18:15:51;;;;;;;0.70;0.70;;;;;;;21.31;100.00;100954.16;2617383;54;20133;-65
2022/05/27 18:18:23;;;;;;;1.20;0.82;;;;;;;21.20;100.00;100949.16;2617731;47;20416;-64
2022/05/27 18:20:56;;;;;;;1.27;1.02;;;;;;;21.12;100.00;100954.38;2617664;54;20161;-65
2022/05/27 18:23:26;;;;;;;0.00;0.00;;;;;;;21.12;100.00;100952.56;2617472;47;20154;-64
2022/05/27 18:25:56;;;;;;;4.25;1.58;;;;;;;21.25;100.00;100954.78;2617244;39;20630;-66
2022/05/27 18:28:27;;;;;;;1.17;1.15;;;;;;;21.15;100.00;100952.25;2617432;54;20180;-65
2022/05/27 18:30:58;;;;;;;1.45;1.35;;;;;;;21.12;100.00;100957.00;2617138;54;20142;-63